Time;durP1;ratioP1;P1;durP2;ratioP2;P2;SDS_P1;SDS_P2;PMS_P1;PMS_P2;Temp;Humidity;BMP_temperature;BMP_pressure;BME280_temperature;BME280_humidity;BME280_pressure;Samples;Min_cycle;Max_cycle;Signal;HPM_P1;HPM_P2
2024/01/19 00:02:26;;;;;;;5.13;2.28;;;;;;;15.61;32.25;101364.94;16105498;19;131734;-65
2024/01/19 00:07:48;;;;;;;3.92;2.50;;;;;;;15.59;32.12;101379.97;16110223;19;130028;-65
2024/01/19 00:13:10;;;;;;;3.47;2.10;;;;;;;15.56;32.37;101386.78;16107413;19;129311;-65
2024/01/19 00:18:32;;;;;;;3.00;1.80;;;;;;;15.54;32.16;101383.38;16107968;19;129452;-65
2024/01/19 00:23:54;;;;;;;4.50;2.60;;;;;;;15.51;32.43;101389.31;16106850;19;131898;-65
2024/01/19 00:29:16;;;;;;;3.33;2.10;;;;;;;15.49;32.21;101396.97;16109400;19;129602;-65
2024/01/19 00:34:38;;;;;;;2.25;1.90;;;;;;;15.46;32.56;101403.75;16104715;19;129998;-65
2024/01/19 00:40:00;;;;;;;3.30;1.70;;;;;;;15.44;32.55;101410.53;16108005;19;130161;-67
2024/01/19 00:45:23;;;;;;;2.75;2.15;;;;;;;15.43;32.43;101408.84;16129837;19;130919;-65
2024/01/19 00:50:45;;;;;;;3.08;1.70;;;;;;;15.42;32.42;101398.88;16125328;19;130239;-65
2024/01/19 00:56:08;;;;;;;3.92;2.22;;;;;;;15.39;32.41;101392.72;16129845;19;131459;-65
2024/01/19 01:01:31;;;;;;;3.05;2.00;;;;;;;15.37;32.58;101394.88;16124293;19;130187;-65
2024/01/19 01:06:53;;;;;;;2.78;2.00;;;;;;;15.36;32.15;101398.69;16132541;19;129550;-65
2024/01/19 01:12:15;;;;;;;3.97;2.33;;;;;;;15.35;32.32;101396.97;16143108;19;129025;-65
2024/01/19 01:17:37;;;;;;;3.40;1.98;;;;;;;15.33;32.05;101407.38;16147384;19;130794;-65
2024/01/19 01:22:59;;;;;;;4.40;2.08;;;;;;;15.31;32.53;101412.25;16143654;19;129434;-66
2024/01/19 01:28:21;;;;;;;2.35;1.80;;;;;;;15.29;32.28;101417.13;16138594;19;129529;-65
2024/01/19 01:33:43;;;;;;;3.40;1.67;;;;;;;15.27;32.54;101413.72;16139506;19;129598;-66
2024/01/19 01:39:04;;;;;;;2.08;1.30;;;;;;;15.24;32.41;101423.25;16133047;19;131033;-66
2024/01/19 01:44:26;;;;;;;2.33;1.85;;;;;;;15.24;32.36;101419.69;16130645;19;131370;-65
2024/01/19 01:49:48;;;;;;;2.33;1.80;;;;;;;15.21;32.39;101426.44;16133056;19;133236;-65
2024/01/19 01:55:12;;;;;;;2.88;1.85;;;;;;;15.20;32.38;101433.00;16124758;19;129427;-65
2024/01/19 02:00:36;;;;;;;2.80;1.90;;;;;;;15.18;32.30;101445.31;16119440;19;131399;-66
2024/01/19 02:05:57;;;;;;;2.53;1.63;;;;;;;15.17;32.16;101454.63;16116313;19;129565;-65
2024/01/19 02:11:20;;;;;;;1.63;1.20;;;;;;;15.15;32.25;101459.50;16117883;19;129641;-66
2024/01/19 02:16:42;;;;;;;1.95;1.30;;;;;;;15.14;32.41;101486.22;16115609;19;129681;-66
2024/01/19 02:22:04;;;;;;;1.23;0.85;;;;;;;15.12;32.34;101496.59;16115588;19;131698;-66
2024/01/19 02:27:27;;;;;;;1.10;0.80;;;;;;;15.12;32.49;101496.59;16116423;19;129754;-66
2024/01/19 02:32:48;;;;;;;0.95;0.70;;;;;;;15.09;32.28;101500.63;16114543;19;129805;-67
2024/01/19 02:38:10;;;;;;;0.95;0.63;;;;;;;15.09;32.60;101506.16;16111238;19;129808;-71
2024/01/19 02:43:32;;;;;;;1.17;0.73;;;;;;;15.07;32.29;101508.25;16111679;19;130336;-71
2024/01/19 02:48:54;;;;;;;1.30;0.60;;;;;;;15.04;32.33;101511.41;16114189;19;129457;-69
2024/01/19 02:54:16;;;;;;;0.68;0.55;;;;;;;15.03;32.37;101515.22;16116969;19;129902;-71
2024/01/19 02:59:39;;;;;;;0.85;0.70;;;;;;;15.02;32.39;101516.28;16111992;19;130806;-71
2024/01/19 03:05:01;;;;;;;0.73;0.60;;;;;;;14.99;32.32;101515.84;16110699;19;130232;-72
2024/01/19 03:10:24;;;;;;;1.65;0.60;;;;;;;14.97;32.27;101518.81;16113440;19;133767;-66
2024/01/19 03:15:46;;;;;;;1.15;0.77;;;;;;;14.94;32.17;101524.75;16115648;19;129457;-66
2024/01/19 03:21:08;;;;;;;1.15;0.70;;;;;;;14.91;32.29;101549.94;16115839;19;130036;-66
2024/01/19 03:26:31;;;;;;;1.75;0.90;;;;;;;14.89;32.07;101550.16;16110490;19;129715;-67
2024/01/19 03:31:53;;;;;;;1.27;0.98;;;;;;;14.89;32.44;101546.56;16112234;19;129879;-66
2024/01/19 03:37:15;;;;;;;1.10;0.88;;;;;;;14.88;32.20;101555.88;16105563;19;130138;-65
2024/01/19 03:42:37;;;;;;;1.50;1.02;;;;;;;14.86;32.29;101558.00;16105282;19;130534;-66
2024/01/19 03:47:59;;;;;;;1.75;1.00;;;;;;;14.84;32.24;101554.59;16109600;19;129281;-66
2024/01/19 03:53:21;;;;;;;1.70;1.10;;;;;;;14.83;32.26;101563.91;16112710;19;130251;-66
2024/01/19 03:58:43;;;;;;;1.67;1.33;;;;;;;14.80;31.99;101556.91;16122982;19;129864;-66
2024/01/19 04:04:05;;;;;;;1.52;1.02;;;;;;;14.77;32.38;101565.56;16114726;19;129656;-65
2024/01/19 04:09:27;;;;;;;1.52;1.10;;;;;;;14.76;32.49;101578.47;16118965;19;131211;-66
2024/01/19 04:14:50;;;;;;;0.82;0.75;;;;;;;14.74;32.40;101577.84;16114250;19;131117;-67
2024/01/19 04:20:12;;;;;;;1.33;1.10;;;;;;;14.72;32.40;101585.44;16115741;19;129862;-66
2024/01/19 04:25:34;;;;;;;1.15;1.05;;;;;;;14.70;32.00;101587.53;16112937;19;129968;-65
2024/01/19 04:30:56;;;;;;;1.30;1.10;;;;;;;14.68;32.54;101599.81;16111881;19;130157;-65
2024/01/19 04:36:18;;;;;;;1.10;0.90;;;;;;;14.66;32.42;101608.28;16109735;19;130029;-65
2024/01/19 04:41:40;;;;;;;0.90;0.85;;;;;;;14.65;32.25;101616.75;16117299;19;131058;-65
2024/01/19 04:47:02;;;;;;;1.33;1.10;;;;;;;14.62;32.08;101618.00;16125506;19;129658;-65
2024/01/19 04:52:23;;;;;;;0.98;0.85;;;;;;;14.60;32.19;101620.13;16125636;19;129811;-65
2024/01/19 04:57:45;;;;;;;1.80;1.02;;;;;;;14.58;32.43;101630.47;16125523;19;130639;-66
2024/01/19 05:03:07;;;;;;;2.03;1.20;;;;;;;14.56;32.44;101632.56;16121751;19;130392;-66
2024/01/19 05:08:29;;;;;;;2.47;1.08;;;;;;;14.54;32.24;101637.44;16121402;19;130454;-65
2024/01/19 05:13:51;;;;;;;1.40;1.20;;;;;;;14.52;32.12;101645.06;16121410;19;130177;-66
2024/01/19 05:19:13;;;;;;;1.58;1.02;;;;;;;14.51;32.48;101659.88;16122095;19;129708;-66
2024/01/19 05:24:43;;;;;;;1.45;1.00;;;;;;;14.54;32.32;101657.56;16117967;19;129272;-66
2024/01/19 05:30:05;;;;;;;0.85;0.80;;;;;;;14.61;32.37;101661.22;16123382;19;130256;-66
2024/01/19 05:35:27;;;;;;;1.35;0.88;;;;;;;14.72;32.26;101668.06;16121597;19;130667;-66
2024/01/19 05:40:49;;;;;;;1.67;1.10;;;;;;;14.84;32.05;101670.28;16122468;19;129428;-66
2024/01/19 05:46:13;;;;;;;1.55;1.10;;;;;;;14.94;32.07;101687.31;16125691;19;130973;-65
2024/01/19 05:51:34;;;;;;;1.60;1.02;;;;;;;15.04;31.87;101687.78;16119932;19;129707;-66
2024/01/19 05:56:56;;;;;;;1.10;0.85;;;;;;;15.14;31.98;101697.59;16120343;19;129807;-66
2024/01/19 06:02:20;;;;;;;1.15;0.90;;;;;;;15.27;31.83;101711.44;16120212;19;131122;-68
2024/01/19 06:07:42;;;;;;;2.10;1.50;;;;;;;15.43;32.48;101707.50;16118079;19;131199;-67
2024/01/19 06:13:03;;;;;;;6.47;1.50;;;;;;;15.54;31.77;101717.06;16118324;19;130936;-67
2024/01/19 06:18:26;;;;;;;5.75;1.00;;;;;;;15.65;31.72;101730.25;16120257;19;129772;-69
2024/01/19 06:23:48;;;;;;;5.25;1.20;;;;;;;15.76;32.21;101741.78;16107622;19;129753;-66
2024/01/19 06:29:10;;;;;;;5.85;1.40;;;;;;;15.87;32.13;101759.66;16105822;19;131071;-67
2024/01/19 06:34:32;;;;;;;4.70;1.00;;;;;;;15.94;32.70;101766.91;16106546;19;131577;-67
2024/01/19 06:39:54;;;;;;;2.72;1.40;;;;;;;16.03;31.99;101777.75;16116693;19;129666;-66
2024/01/19 06:45:16;;;;;;;6.10;2.20;;;;;;;16.08;31.30;101780.75;16118857;19;130326;-66
2024/01/19 06:50:39;;;;;;;4.95;1.90;;;;;;;16.15;31.30;101785.25;16117955;19;129485;-68
2024/01/19 06:56:00;;;;;;;5.78;1.50;;;;;;;16.23;31.15;101784.19;16114440;19;130469;-66
2024/01/19 07:01:30;;;;;;;6.30;1.92;;;;;;;16.32;30.78;101805.03;16117170;19;129811;-67
2024/01/19 07:06:52;;;;;;;4.28;1.67;;;;;;;16.37;30.32;101800.78;16111925;19;130634;-66
2024/01/19 07:12:16;;;;;;;2.88;1.27;;;;;;;16.39;30.17;101817.97;16111429;19;130260;-66
2024/01/19 07:17:38;;;;;;;4.82;1.67;;;;;;;16.37;30.17;101826.47;16114852;19;130961;-66
2024/01/19 07:23:03;;;;;;;2.03;1.45;;;;;;;16.32;30.51;101838.16;16111390;19;130645;-65
2024/01/19 07:28:25;;;;;;;3.30;1.52;;;;;;;16.25;30.20;101830.91;16112417;19;129266;-68
2024/01/19 07:33:47;;;;;;;2.97;1.50;;;;;;;16.19;30.29;101842.78;16113519;19;130423;-66
2024/01/19 07:39:09;;;;;;;2.15;1.20;;;;;;;16.13;30.68;101861.88;16111646;19;131319;-65
2024/01/19 07:44:31;;;;;;;1.90;1.27;;;;;;;16.08;30.85;101860.81;16109754;19;129448;-65
2024/01/19 07:49:53;;;;;;;1.48;1.20;;;;;;;16.07;30.59;101870.13;16111984;19;129198;-66
2024/01/19 07:55:15;;;;;;;1.95;1.10;;;;;;;16.19;30.57;101873.13;16112945;19;129667;-65
2024/01/19 08:00:37;;;;;;;3.67;1.30;;;;;;;16.23;30.36;101889.13;16113163;19;129763;-66
2024/01/19 08:05:59;;;;;;;2.47;1.35;;;;;;;16.47;29.89;101878.56;16113052;19;130310;-65
2024/01/19 08:11:21;;;;;;;2.50;1.40;;;;;;;16.74;30.00;101889.69;16111538;19;129597;-68
2024/01/19 08:16:43;;;;;;;2.35;1.20;;;;;;;17.07;29.70;101902.72;16115270;19;130002;-65
2024/01/19 08:22:05;;;;;;;2.45;1.20;;;;;;;17.45;29.32;101896.53;16126916;19;129588;-65
2024/01/19 08:27:27;;;;;;;1.90;1.55;;;;;;;17.84;28.71;101911.41;16126858;19;130265;-65
2024/01/19 08:32:49;;;;;;;3.78;1.30;;;;;;;18.27;28.06;101911.88;16123456;19;129507;-65
2024/01/19 08:38:13;;;;;;;1.92;1.30;;;;;;;18.66;27.67;101936.84;16125817;19;129339;-67
2024/01/19 08:43:35;;;;;;;1.42;1.00;;;;;;;19.01;27.15;101928.97;16124426;19;129050;-64
2024/01/19 08:48:57;;;;;;;1.83;1.35;;;;;;;19.29;27.08;101949.91;16121321;19;129343;-65
2024/01/19 08:54:19;;;;;;;1.63;1.00;;;;;;;19.51;26.41;101955.06;16122299;19;129867;-64
2024/01/19 08:59:41;;;;;;;1.67;1.00;;;;;;;19.62;26.26;101970.97;16123126;19;131601;-65
2024/01/19 09:05:03;;;;;;;1.80;1.00;;;;;;;19.61;26.37;101985.09;16119292;19;131659;-65
2024/01/19 09:10:26;;;;;;;1.63;1.23;;;;;;;19.64;25.91;101991.03;16117945;19;129785;-65
2024/01/19 09:15:48;;;;;;;1.13;0.95;;;;;;;19.59;26.05;101988.06;16122523;19;129735;-64
2024/01/19 09:21:15;;;;;;;2.55;1.13;;;;;;;19.60;25.91;101988.94;16121036;19;129884;-66
2024/01/19 09:26:37;;;;;;;1.30;1.00;;;;;;;19.60;25.97;101995.31;16120385;19;129539;-65
2024/01/19 09:31:59;;;;;;;2.17;1.15;;;;;;;19.66;25.68;101993.56;16119673;19;130726;-65
2024/01/19 09:37:21;;;;;;;1.50;1.00;;;;;;;19.79;25.87;102009.25;16120002;19;129931;-65
2024/01/19 09:42:43;;;;;;;1.35;1.15;;;;;;;19.99;25.62;102015.50;16121262;19;130311;-66
2024/01/19 09:48:24;;;;;;;1.33;1.00;;;;;;;20.29;25.20;102033.34;16118236;19;129563;-66
2024/01/19 09:53:52;;;;;;;1.40;1.05;;;;;;;20.64;25.14;102043.00;16110865;19;130615;-66
2024/01/19 09:59:15;;;;;;;1.80;1.38;;;;;;;21.00;25.19;102046.84;16112405;19;129285;-66
2024/01/19 10:04:37;;;;;;;1.50;1.30;;;;;;;21.42;24.48;102069.13;16112855;19;130431;-65
2024/01/19 10:09:59;;;;;;;1.92;1.20;;;;;;;21.85;24.22;102057.97;16116355;19;129469;-67
2024/01/19 10:15:22;;;;;;;2.22;1.20;;;;;;;22.31;23.71;102066.63;16114836;19;129647;-66
2024/01/19 10:20:48;;;;;;;2.17;1.23;;;;;;;22.79;23.47;102071.00;16120295;19;129914;-66
2024/01/19 10:26:13;;;;;;;2.03;1.38;;;;;;;23.21;23.11;102078.28;16116782;19;131870;-66
2024/01/19 10:31:36;;;;;;;1.77;1.10;;;;;;;23.55;22.47;102074.72;16113752;19;129630;-67
2024/01/19 10:36:58;;;;;;;1.38;1.10;;;;;;;23.89;21.99;102070.00;16116374;19;129276;-66
2024/01/19 10:42:20;;;;;;;1.73;1.38;;;;;;;24.21;21.37;102071.31;16111871;19;131266;-66
2024/01/19 10:47:46;;;;;;;1.63;1.30;;;;;;;24.52;21.10;102067.03;16114108;19;130469;-66
2024/01/19 10:53:12;;;;;;;1.50;1.40;;;;;;;24.82;20.80;102076.06;16114228;19;130295;-66
2024/01/19 10:58:34;;;;;;;1.52;1.20;;;;;;;25.02;20.42;102069.91;16113606;19;131934;-67
2024/01/19 11:03:56;;;;;;;1.65;1.45;;;;;;;25.20;20.51;102071.50;16112923;19;130340;-66
2024/01/19 11:09:18;;;;;;;1.65;1.55;;;;;;;25.29;20.33;102074.66;16112872;19;129681;-66
2024/01/19 11:14:44;;;;;;;2.13;1.42;;;;;;;25.21;20.06;102073.19;16112515;19;129526;-66
2024/01/19 11:20:08;;;;;;;1.52;1.40;;;;;;;24.99;20.30;102081.63;16112751;19;130342;-66
2024/01/19 11:25:51;;;;;;;1.50;1.40;;;;;;;24.60;20.55;102078.88;16111452;19;131894;-66
2024/01/19 11:31:17;;;;;;;2.05;1.40;;;;;;;24.08;20.63;102067.78;16110532;19;130338;-66
2024/01/19 11:36:47;;;;;;;1.65;1.42;;;;;;;23.63;21.27;102075.16;16108772;19;129388;-66
2024/01/19 11:42:29;;;;;;;2.50;1.70;;;;;;;23.19;21.60;102074.88;16104299;19;130974;-66
2024/01/19 11:47:51;;;;;;;2.15;1.50;;;;;;;22.83;22.01;102085.31;16106658;19;129560;-66
2024/01/19 11:53:14;;;;;;;1.75;1.50;;;;;;;22.54;22.21;102088.03;16105333;19;130756;-66
2024/01/19 11:58:38;;;;;;;2.53;1.60;;;;;;;22.29;22.27;102086.34;16108788;19;129979;-66
2024/01/19 12:04:00;;;;;;;2.00;1.77;;;;;;;22.10;22.61;102089.25;16112370;19;130260;-66
2024/01/19 12:09:22;;;;;;;3.22;1.90;;;;;;;21.96;22.79;102094.22;16105808;19;131396;-66
2024/01/19 12:14:44;;;;;;;3.28;1.70;;;;;;;21.86;23.01;102098.69;16110849;19;129418;-66
2024/01/19 12:20:10;;;;;;;3.13;1.83;;;;;;;21.81;23.16;102099.41;16107824;19;130143;-66
2024/01/19 12:25:32;;;;;;;2.90;1.95;;;;;;;21.80;23.02;102101.31;16107969;19;131211;-66
2024/01/19 12:30:56;;;;;;;2.35;1.65;;;;;;;21.76;23.11;102107.63;16105899;19;131618;-65
2024/01/19 12:36:22;;;;;;;2.47;1.83;;;;;;;21.75;23.39;102098.44;16108815;19;129585;-66
2024/01/19 12:41:58;;;;;;;2.67;1.63;;;;;;;22.10;22.99;102094.81;16108502;19;129435;-65
2024/01/19 12:47:19;;;;;;;2.22;1.35;;;;;;;22.48;22.69;102098.22;16109514;19;129582;-66
2024/01/19 12:52:42;;;;;;;2.75;1.50;;;;;;;22.80;22.66;102096.94;16107465;19;129902;-66
2024/01/19 12:58:04;;;;;;;2.15;1.50;;;;;;;23.05;22.55;102094.72;16107612;19;129519;-66
2024/01/19 13:03:25;;;;;;;2.55;1.75;;;;;;;23.24;22.55;102094.53;16113664;19;129964;-66
2024/01/19 13:08:51;;;;;;;3.13;1.88;;;;;;;23.35;22.14;102104.81;16121578;19;129803;-66
2024/01/19 13:14:13;;;;;;;1.88;1.58;;;;;;;23.38;21.91;102097.84;16119468;19;130558;-66
2024/01/19 13:19:43;;;;;;;2.38;1.63;;;;;;;23.35;21.85;102102.00;16121036;19;129520;-66
2024/01/19 13:25:06;;;;;;;1.58;1.40;;;;;;;23.28;21.91;102114.44;16122010;19;129708;-66
2024/01/19 13:30:29;;;;;;;1.60;1.30;;;;;;;23.16;21.90;102106.94;16122478;19;134455;-65
2024/01/19 13:35:51;;;;;;;2.67;1.83;;;;;;;23.04;21.67;102115.34;16123690;19;130730;-66
2024/01/19 13:41:14;;;;;;;2.85;1.80;;;;;;;22.92;21.72;102117.31;16119156;19;129476;-66
2024/01/19 13:46:36;;;;;;;1.88;1.50;;;;;;;22.78;22.25;102113.09;16120103;19;131235;-66
2024/01/19 13:51:58;;;;;;;2.90;1.75;;;;;;;22.62;22.42;102129.50;16120200;19;130955;-66
2024/01/19 13:57:20;;;;;;;1.98;1.60;;;;;;;22.46;22.75;102130.25;16115672;19;130183;-65
2024/01/19 14:02:42;;;;;;;4.53;1.88;;;;;;;22.26;22.36;102137.03;16120295;19;130788;-65
2024/01/19 14:08:07;;;;;;;2.30;1.52;;;;;;;22.04;23.04;102143.16;16116914;19;132177;-66
2024/01/19 14:13:29;;;;;;;2.40;1.40;;;;;;;21.83;22.81;102145.41;16108436;19;129378;-66
2024/01/19 14:18:51;;;;;;;2.50;1.42;;;;;;;21.64;23.08;102149.38;16112266;19;129782;-66
2024/01/19 14:24:13;;;;;;;1.80;1.30;;;;;;;21.44;23.67;102144.91;16114630;19;130109;-66
2024/01/19 14:29:37;;;;;;;1.40;1.30;;;;;;;21.27;23.44;102155.84;16108532;19;130016;-66
2024/01/19 14:35:00;;;;;;;2.03;1.30;;;;;;;21.09;23.47;102165.06;16111313;19;131524;-66
2024/01/19 14:40:22;;;;;;;2.72;1.52;;;;;;;20.88;23.83;102172.81;16113676;19;130551;-66
2024/01/19 14:45:46;;;;;;;1.90;1.30;;;;;;;20.67;23.94;102174.06;16116702;19;131047;-66
2024/01/19 14:51:09;;;;;;;1.85;1.15;;;;;;;20.44;24.14;102177.50;16117861;19;129566;-66
2024/01/19 14:56:31;;;;;;;2.00;1.20;;;;;;;20.22;24.72;102191.81;16115362;19;129808;-66
2024/01/19 15:01:55;;;;;;;2.63;1.38;;;;;;;20.02;24.60;102180.84;16117420;19;131429;-66
2024/01/19 15:07:19;;;;;;;1.45;1.00;;;;;;;19.83;24.83;102196.53;16113336;19;129275;-66
2024/01/19 15:12:41;;;;;;;2.38;1.33;;;;;;;19.66;25.18;102194.31;16111336;19;130687;-66
2024/01/19 15:18:03;;;;;;;1.98;1.23;;;;;;;19.48;25.52;102196.97;16110835;19;130608;-64
2024/01/19 15:23:26;;;;;;;1.55;1.20;;;;;;;19.27;25.87;102195.34;16112432;19;129481;-66
2024/01/19 15:28:48;;;;;;;1.40;1.00;;;;;;;19.10;25.62;102203.28;16111319;19;130822;-66
2024/01/19 15:34:10;;;;;;;1.30;1.10;;;;;;;18.94;26.23;102213.78;16113612;19;130178;-65
2024/01/19 15:39:32;;;;;;;1.88;1.17;;;;;;;18.75;26.02;102210.00;16115209;19;130163;-65
2024/01/19 15:44:54;;;;;;;1.33;1.23;;;;;;;18.56;26.62;102212.56;16114536;19;130850;-65
2024/01/19 15:50:16;;;;;;;1.98;1.40;;;;;;;18.36;26.55;102218.06;16107886;19;129956;-67
2024/01/19 15:55:38;;;;;;;2.00;1.38;;;;;;;18.20;27.07;102232.34;16112287;19;129997;-65
2024/01/19 16:01:00;;;;;;;1.70;1.15;;;;;;;18.15;27.16;102239.38;16111783;19;130223;-66
2024/01/19 16:06:25;;;;;;;1.87;1.20;;;;;;;18.15;27.12;102250.44;16112149;19;129531;-66
2024/01/19 16:11:48;;;;;;;0.85;0.75;;;;;;;18.19;27.34;102255.56;16112950;19;131032;-66
2024/01/19 16:17:10;;;;;;;2.15;1.27;;;;;;;18.21;27.53;102264.53;16104886;19;130462;-66
2024/01/19 16:22:32;;;;;;;9.45;3.53;;;;;;;18.09;26.50;102267.06;16106061;19;131815;-66
2024/01/19 16:27:54;;;;;;;8.25;2.92;;;;;;;18.07;26.25;102270.03;16112390;19;130313;-66
2024/01/19 16:33:16;;;;;;;4.65;2.25;;;;;;;18.08;26.52;102281.97;16107583;19;132211;-65
2024/01/19 16:38:40;;;;;;;4.90;2.47;;;;;;;18.10;26.47;102286.22;16127581;19;129956;-67
2024/01/19 16:44:03;;;;;;;5.85;2.03;;;;;;;18.13;27.09;102298.81;16123803;19;130566;-66
2024/01/19 16:49:25;;;;;;;2.53;1.77;;;;;;;18.14;26.93;102298.59;16125237;19;129477;-66
2024/01/19 16:54:48;;;;;;;2.47;1.67;;;;;;;18.13;26.91;102302.44;16128727;19;129546;-67
2024/01/19 17:00:11;;;;;;;4.85;1.98;;;;;;;18.10;26.97;102308.38;16134649;19;129974;-67
2024/01/19 17:05:32;;;;;;;6.78;2.22;;;;;;;18.06;27.59;102317.31;16131536;19;130985;-72
2024/01/19 17:10:55;;;;;;;7.10;2.30;;;;;;;17.99;27.77;102329.25;16119781;19;130351;-70
2024/01/19 17:16:17;;;;;;;251.68;112.25;;;;;;;17.89;28.50;102333.44;16127275;19;130370;-72
2024/01/19 17:21:48;;;;;;;151.52;68.22;;;;;;;17.84;28.56;102345.16;16118883;19;130070;-73
2024/01/19 17:27:10;;;;;;;316.47;155.87;;;;;;;17.82;28.71;102345.38;16123775;19;130213;-70
2024/01/19 17:32:32;;;;;;;304.50;156.68;;;;;;;17.90;28.67;102357.31;16114222;19;130305;-72
2024/01/19 17:37:55;;;;;;;303.90;168.82;;;;;;;18.00;28.76;102363.31;16121654;19;129484;-68
2024/01/19 17:43:17;;;;;;;275.88;157.25;;;;;;;18.08;29.54;102359.50;16116376;19;131482;-70
2024/01/19 17:48:39;;;;;;;199.73;110.70;;;;;;;18.12;29.49;102356.09;16119277;19;131380;-69
2024/01/19 17:54:03;;;;;;;172.23;103.75;;;;;;;18.13;29.16;102374.44;16116390;19;129808;-69
2024/01/19 17:59:25;;;;;;;233.82;169.93;;;;;;;18.17;29.27;102382.34;16108697;19;129583;-68
2024/01/19 18:04:48;;;;;;;234.10;175.25;;;;;;;18.18;29.59;102389.59;16117733;19;129627;-69
2024/01/19 18:10:10;;;;;;;253.07;206.30;;;;;;;18.13;29.73;102399.38;16120938;19;129583;-68
2024/01/19 18:15:32;;;;;;;236.02;194.77;;;;;;;18.06;29.68;102411.47;16162322;19;129273;-67
2024/01/19 18:20:54;;;;;;;213.57;176.05;;;;;;;18.00;29.33;102418.69;16178637;19;129887;-68
2024/01/19 18:26:16;;;;;;;195.35;159.85;;;;;;;17.90;29.49;102429.28;16182337;19;128946;-69
2024/01/19 18:31:39;;;;;;;183.27;148.27;;;;;;;17.79;29.61;102425.16;16175922;19;129250;-70
2024/01/19 18:37:02;;;;;;;167.82;133.77;;;;;;;17.71;29.32;102430.88;16178152;19;128962;-70
2024/01/19 18:42:23;;;;;;;138.27;113.68;;;;;;;17.63;29.38;102440.19;16174161;19;129528;-72
2024/01/19 18:47:45;;;;;;;128.43;104.70;;;;;;;17.51;29.25;102449.03;16184183;19;129176;-72
2024/01/19 18:53:08;;;;;;;114.80;91.07;;;;;;;17.44;29.57;102452.78;16183341;19;131205;-69
2024/01/19 18:58:36;;;;;;;102.72;79.75;;;;;;;17.33;29.39;102470.81;16170036;19;129850;-71
2024/01/19 19:03:58;;;;;;;90.63;67.18;;;;;;;17.24;29.44;102470.94;16151398;19;131525;-69
2024/01/19 19:09:21;;;;;;;80.45;60.55;;;;;;;17.15;29.74;102472.13;16167505;19;128994;-69
2024/01/19 19:14:43;;;;;;;76.30;54.13;;;;;;;17.06;29.49;102474.19;16176081;19;132302;-69
2024/01/19 19:20:06;;;;;;;71.95;51.53;;;;;;;17.00;29.74;102474.97;16177329;19;129848;-69
2024/01/19 19:25:28;;;;;;;62.60;45.00;;;;;;;16.92;29.77;102478.72;16181453;19;132639;-69
2024/01/19 19:30:50;;;;;;;59.45;39.55;;;;;;;16.87;30.00;102481.22;16175442;19;131032;-69
2024/01/19 19:36:13;;;;;;;53.03;35.47;;;;;;;16.83;30.05;102479.91;16183857;19;129432;-69
2024/01/19 19:41:35;;;;;;;47.10;31.02;;;;;;;16.78;30.04;102482.41;16178848;19;130164;-69
2024/01/19 19:46:57;;;;;;;42.10;27.42;;;;;;;16.75;30.49;102491.06;16177897;19;129476;-70
2024/01/19 19:52:19;;;;;;;36.70;24.45;;;;;;;16.72;30.53;102505.31;16182273;19;129113;-70
2024/01/19 19:57:42;;;;;;;38.83;22.95;;;;;;;16.68;30.74;102507.56;16183575;19;130073;-70
2024/01/19 20:03:04;;;;;;;34.10;21.73;;;;;;;16.65;30.70;102507.09;16181528;19;129123;-69
2024/01/19 20:08:26;;;;;;;33.67;19.48;;;;;;;16.60;30.50;102519.59;16166521;19;129037;-69
2024/01/19 20:13:48;;;;;;;26.77;17.27;;;;;;;16.56;30.59;102507.22;16179311;19;131038;-69
2024/01/19 20:19:10;;;;;;;27.42;15.77;;;;;;;16.52;30.59;102510.56;16187929;19;130766;-68
2024/01/19 20:24:32;;;;;;;27.15;14.45;;;;;;;16.47;30.68;102519.44;16192980;19;129281;-69
2024/01/19 20:29:55;;;;;;;20.33;13.55;;;;;;;16.43;30.48;102512.56;16186603;19;129751;-69
2024/01/19 20:35:17;;;;;;;23.45;12.85;;;;;;;16.40;30.70;102515.69;16179265;19;128885;-69
2024/01/19 20:40:40;;;;;;;21.17;12.52;;;;;;;16.36;31.16;102514.41;16165258;19;129462;-69
2024/01/19 20:46:02;;;;;;;22.10;11.90;;;;;;;16.32;31.03;102520.28;16142633;19;130025;-70
2024/01/19 20:51:24;;;;;;;18.35;10.75;;;;;;;16.29;31.09;102523.44;16149449;19;129214;-69
2024/01/19 20:56:51;;;;;;;17.80;9.32;;;;;;;16.27;31.15;102535.72;16149772;19;130866;-70
2024/01/19 21:02:16;;;;;;;19.73;9.77;;;;;;;16.25;31.31;102533.13;16149687;19;129406;-70
2024/01/19 21:07:39;;;;;;;16.63;9.02;;;;;;;16.24;31.55;102542.50;16164334;19;129593;-69
2024/01/19 21:13:01;;;;;;;15.40;8.32;;;;;;;16.23;31.23;102529.72;16162827;19;130473;-70
2024/01/19 21:18:23;;;;;;;11.55;8.65;;;;;;;16.20;31.39;102532.88;16155149;19;133690;-69
2024/01/19 21:23:47;;;;;;;14.52;8.07;;;;;;;16.19;31.35;102539.44;16153576;19;130095;-69
2024/01/19 21:29:10;;;;;;;16.45;8.02;;;;;;;16.16;31.10;102537.91;16151377;19;129690;-70
2024/01/19 21:34:33;;;;;;;12.95;7.75;;;;;;;16.15;32.99;102536.19;16141945;19;129335;-71
2024/01/19 21:39:55;;;;;;;15.85;8.32;;;;;;;16.14;33.28;102541.91;16174239;19;128786;-69
2024/01/19 21:45:17;;;;;;;13.80;8.02;;;;;;;16.16;33.21;102550.84;16143753;19;130638;-70
2024/01/19 21:50:39;;;;;;;19.58;8.15;;;;;;;16.16;32.75;102550.84;16126863;19;130331;-70
2024/01/19 21:56:02;;;;;;;11.70;7.07;;;;;;;16.14;32.60;102567.63;16136427;19;130221;-69
2024/01/19 22:01:24;;;;;;;16.13;8.02;;;;;;;16.12;32.71;102560.59;16131753;19;129893;-70
2024/01/19 22:06:46;;;;;;;15.57;7.35;;;;;;;16.09;32.61;102556.28;16134256;19;131528;-70
2024/01/19 22:12:08;;;;;;;13.27;7.97;;;;;;;16.05;32.63;102565.13;16130492;19;131408;-69
2024/01/19 22:17:30;;;;;;;14.10;7.47;;;;;;;16.01;32.51;102559.13;16121654;19;130051;-70
2024/01/19 22:22:52;;;;;;;12.20;7.47;;;;;;;15.97;32.12;102564.19;16124743;19;129617;-71
2024/01/19 22:28:14;;;;;;;19.40;7.78;;;;;;;15.95;32.20;102574.53;16126698;19;129774;-69
2024/01/19 22:33:37;;;;;;;11.68;6.93;;;;;;;15.91;31.80;102581.47;16123094;19;130454;-69
2024/01/19 22:38:59;;;;;;;14.73;7.78;;;;;;;15.86;31.71;102583.97;16125325;19;130789;-69
2024/01/19 22:44:22;;;;;;;10.93;6.53;;;;;;;15.82;31.92;102594.50;16123859;19;130479;-69
2024/01/19 22:49:44;;;;;;;14.80;7.57;;;;;;;15.78;31.54;102598.69;16122637;19;129610;-69
2024/01/19 22:55:06;;;;;;;11.57;6.90;;;;;;;15.76;31.52;102605.41;16114286;19;129893;-69
2024/01/19 23:00:29;;;;;;;16.42;7.03;;;;;;;15.74;31.81;102604.75;16125901;19;131403;-70
2024/01/19 23:05:50;;;;;;;13.23;7.57;;;;;;;15.72;31.70;102610.41;16114933;19;131447;-70
2024/01/19 23:11:13;;;;;;;10.18;6.97;;;;;;;15.69;31.33;102606.13;16125853;19;131214;-69
2024/01/19 23:16:36;;;;;;;13.45;7.10;;;;;;;15.66;31.25;102606.50;16121012;19;128986;-69
2024/01/19 23:22:00;;;;;;;10.05;5.93;;;;;;;15.63;31.52;102612.38;16119720;19;129376;-69
2024/01/19 23:27:22;;;;;;;14.52;6.90;;;;;;;15.60;31.17;102629.31;16113443;19;131198;-69
2024/01/19 23:32:44;;;;;;;11.02;6.32;;;;;;;15.57;31.21;102643.47;16111808;19;130651;-69
2024/01/19 23:38:06;;;;;;;10.68;6.43;;;;;;;15.54;31.27;102636.44;16116318;19;130291;-69
2024/01/19 23:43:29;;;;;;;10.52;6.43;;;;;;;15.52;31.53;102643.16;16110493;19;130719;-69
2024/01/19 23:48:51;;;;;;;8.32;5.63;;;;;;;15.49;31.26;102643.53;16109880;19;130088;-69
2024/01/19 23:54:13;;;;;;;8.07;5.75;;;;;;;15.45;31.45;102651.31;16110811;19;129856;-69
2024/01/19 23:59:35;;;;;;;8.48;5.55;;;;;;;15.43;31.35;102645.13;16108899;19;130349;-69
